createdAt,value
2023-04-23T08:20:31.693Z,99969.13
2023-04-23T08:25:35.884Z,99973.50
2023-04-23T08:30:40.122Z,99976.31
2023-04-23T08:35:46.122Z,99982.66
2023-04-23T08:40:50.477Z,99978.84
2023-04-23T08:45:54.535Z,99979.88
2023-04-23T08:51:00.431Z,99954.38
2023-04-23T08:56:05.673Z,99949.72
2023-04-23T09:01:09.754Z,99952.34
2023-04-23T09:06:15.807Z,99941.59
2023-04-23T09:11:19.992Z,99935.50
2023-04-23T09:16:24.075Z,99926.44
2023-04-23T09:21:30.934Z,99902.00
2023-04-23T09:26:35.523Z,99910.41
2023-04-23T09:31:39.578Z,99908.00
2023-04-23T09:36:45.602Z,99910.31
2023-04-23T09:41:49.716Z,99895.28
2023-04-23T09:46:53.734Z,99897.25
2023-04-23T09:51:59.796Z,99888.88
2023-04-23T09:57:05.430Z,99882.28
2023-04-23T10:02:10.227Z,99876.25
2023-04-23T10:07:20.243Z,99874.13
2023-04-23T10:17:31.888Z,99892.91
2023-04-23T10:27:58.870Z,99887.00
2023-04-23T10:33:03.055Z,99887.81
2023-04-23T10:38:07.209Z,99893.16
2023-04-23T10:43:13.178Z,99886.28
2023-04-23T10:48:17.380Z,99878.19
2023-04-23T10:53:21.903Z,99862.28
2023-04-23T10:58:28.997Z,99860.72
2023-04-23T11:03:34.436Z,99853.47
2023-04-23T11:08:39.385Z,99841.34
2023-04-23T11:13:46.922Z,99846.81
2023-04-23T11:19:11.899Z,99834.88
2023-04-23T11:24:16.519Z,99827.63
2023-04-23T11:29:21.718Z,99827.41
2023-04-23T11:34:27.779Z,99814.13
2023-04-23T11:39:32.022Z,99805.34
2023-04-23T11:44:36.556Z,99798.41
2023-04-23T11:49:45.064Z,99793.31
2023-04-23T11:54:49.692Z,99794.25
2023-04-23T11:59:56.226Z,99788.88
2023-04-23T12:05:09.721Z,99778.41
2023-04-23T12:10:19.648Z,99773.09
2023-04-23T12:15:23.994Z,99760.50
2023-04-23T12:20:30.068Z,99747.59
2023-04-23T12:25:34.871Z,99742.38
2023-04-23T12:30:46.214Z,99743.19
2023-04-23T12:35:54.335Z,99729.66
2023-04-23T12:41:01.319Z,99742.97
2023-04-23T12:46:05.646Z,99722.06
2023-04-23T12:51:11.946Z,99718.09
2023-04-23T12:56:16.329Z,99717.25
2023-04-23T13:01:20.451Z,99707.56
2023-04-23T13:06:28.731Z,99690.97
2023-04-23T13:11:32.927Z,99684.63
2023-04-23T13:16:37.117Z,99673.81
2023-04-23T13:21:43.151Z,99675.16
2023-04-23T13:26:47.546Z,99669.41
2023-04-23T13:31:51.890Z,99657.66
2023-04-23T13:36:57.946Z,99652.63
2023-04-23T13:42:09.513Z,99647.97
2023-04-23T13:47:14.289Z,99637.88
2023-04-23T13:52:20.638Z,99628.25
2023-04-23T13:57:25.955Z,99616.06
2023-04-23T14:02:30.848Z,99597.06
2023-04-23T14:07:37.408Z,99588.31
2023-04-23T14:12:41.667Z,99581.66
2023-04-23T14:17:47.014Z,99571.34
2023-04-23T14:22:58.337Z,99553.72
2023-04-23T14:28:05.187Z,99546.34
2023-04-23T14:33:09.317Z,99535.63
2023-04-23T14:38:15.713Z,99533.47
2023-04-23T14:43:19.947Z,99542.06
2023-04-23T14:48:24.010Z,99519.94
2023-04-23T14:53:30.187Z,99522.34
2023-04-23T14:58:34.196Z,99518.28
2023-04-23T15:03:38.420Z,99513.50
2023-04-23T15:08:44.882Z,99501.91
2023-04-23T15:13:54.506Z,99498.25
2023-04-23T15:18:58.911Z,99499.25
2023-04-23T15:24:05.506Z,99494.94
2023-04-23T15:29:09.617Z,99494.94
2023-04-23T15:34:13.661Z,99492.94
2023-04-23T15:39:19.690Z,99506.69
2023-04-23T15:44:24.692Z,99502.66
2023-04-23T15:49:28.766Z,99519.06
2023-04-23T15:54:34.813Z,99509.78
2023-04-23T15:59:39.204Z,99512.75
2023-04-23T16:04:43.922Z,99525.69
2023-04-23T16:09:50.816Z,99561.31
2023-04-23T16:14:54.974Z,99556.84
2023-04-23T16:19:59.044Z,99574.41
2023-04-23T16:25:05.793Z,99567.44
2023-04-23T16:30:11.910Z,99546.19
2023-04-23T16:35:16.089Z,99533.78
2023-04-23T16:40:22.355Z,99495.25
2023-04-23T16:45:26.764Z,99490.00
2023-04-23T16:50:30.888Z,99448.19
2023-04-23T16:55:37.669Z,99452.13
2023-04-23T17:00:41.684Z,99457.16
2023-04-23T17:05:45.806Z,99447.56
2023-04-23T17:10:51.950Z,99433.41
2023-04-23T17:15:56.047Z,99431.59
2023-04-23T17:21:00.206Z,99430.91
2023-04-23T17:26:06.250Z,99448.47
2023-04-23T17:31:10.773Z,99441.81
2023-04-23T17:36:15.315Z,63615.72
2023-04-23T17:41:22.306Z,63615.72
2023-04-23T17:46:26.488Z,63615.72
2023-04-23T17:51:30.944Z,63615.72
2023-04-23T17:56:37.187Z,63615.72
2023-04-23T18:01:41.239Z,63615.72
2023-04-23T18:06:45.526Z,63615.72
2023-04-23T18:11:51.805Z,63615.72
2023-04-23T18:16:55.987Z,63615.72
2023-04-23T18:22:01.724Z,63615.72
2023-04-23T18:27:07.768Z,63615.72
2023-04-23T18:32:15.861Z,63615.72
2023-04-23T18:37:40.268Z,63615.72
2023-04-23T18:42:46.296Z,63615.72
2023-04-23T18:47:53.010Z,63615.72
2023-04-23T18:52:57.162Z,63615.72
2023-04-23T18:58:03.688Z,63615.72
2023-04-23T19:03:23.462Z,63615.72
2023-04-23T19:08:31.013Z,63615.72
2023-04-23T19:13:36.974Z,63615.72
2023-04-23T19:18:40.962Z,63615.72
2023-04-23T19:23:45.081Z,63615.72
2023-04-23T19:28:51.029Z,63615.72
2023-04-23T19:33:55.049Z,63615.72
2023-04-23T19:38:59.285Z,63615.72
2023-04-23T19:44:05.358Z,63615.72
2023-04-23T19:49:09.483Z,63615.72
2023-04-23T19:54:13.481Z,63615.72
2023-04-23T19:59:20.436Z,63615.72
2023-04-23T20:04:24.591Z,63615.72
2023-04-23T20:09:29.041Z,63615.72
2023-04-23T20:14:35.297Z,63615.72
2023-04-23T20:19:39.293Z,63615.72
2023-04-23T20:24:45.879Z,63615.72
2023-04-23T20:29:52.075Z,63615.72
2023-04-23T20:34:57.451Z,63615.72
2023-04-23T20:40:01.716Z,63615.72
2023-04-23T20:45:12.618Z,63615.72
2023-04-23T20:50:16.953Z,63615.72
2023-04-23T20:55:21.520Z,63615.72
2023-04-23T21:00:28.847Z,63615.72
